createdAt,value
2023-04-18T00:00:29.849Z,11.49
2023-04-18T00:00:59.860Z,11.51
2023-04-18T00:01:29.846Z,11.57
2023-04-18T00:01:59.971Z,11.63
2023-04-18T00:02:29.977Z,11.64
2023-04-18T00:03:02.353Z,11.66
2023-04-18T00:03:31.161Z,11.65
2023-04-18T00:03:59.955Z,11.63
2023-04-18T00:04:29.965Z,11.58
2023-04-18T00:04:59.922Z,11.55
2023-04-18T00:05:29.918Z,11.54
2023-04-18T00:05:59.849Z,11.55
2023-04-18T00:06:29.851Z,11.52
2023-04-18T00:06:59.847Z,11.49
2023-04-18T00:07:29.849Z,11.47
2023-04-18T00:07:59.850Z,11.47
2023-04-18T00:08:29.858Z,11.47
2023-04-18T00:08:59.850Z,11.48
2023-04-18T00:09:29.907Z,11.49
2023-04-18T00:09:59.855Z,11.49
2023-04-18T00:10:29.855Z,11.47
2023-04-18T00:10:59.861Z,11.49
2023-04-18T00:11:29.859Z,11.49
2023-04-18T00:11:59.935Z,11.49
2023-04-18T00:12:29.852Z,11.49
2023-04-18T00:12:59.855Z,11.47
2023-04-18T00:13:29.855Z,11.45
2023-04-18T00:13:59.856Z,11.46
2023-04-18T00:14:29.852Z,11.47
2023-04-18T00:14:59.854Z,11.49
2023-04-18T00:15:29.849Z,11.48
2023-04-18T00:15:59.858Z,11.46
2023-04-18T00:16:29.878Z,11.43
2023-04-18T00:16:59.891Z,11.41
2023-04-18T00:17:29.890Z,11.4
2023-04-18T00:17:59.906Z,11.41
2023-04-18T00:18:29.855Z,11.4
2023-04-18T00:18:59.850Z,11.38
2023-04-18T00:19:29.852Z,11.4
2023-04-18T00:19:59.854Z,11.43
2023-04-18T00:20:29.850Z,11.45
2023-04-18T00:20:59.859Z,11.46
2023-04-18T00:21:29.853Z,11.44
2023-04-18T00:21:59.870Z,11.47
2023-04-18T00:22:29.855Z,11.45
2023-04-18T00:22:59.851Z,11.42
2023-04-18T00:23:29.853Z,11.39
2023-04-18T00:23:59.856Z,11.36
2023-04-18T00:24:29.864Z,11.33
2023-04-18T00:24:59.872Z,11.33
2023-04-18T00:25:29.867Z,11.34
2023-04-18T00:25:59.866Z,11.32
2023-04-18T00:26:29.854Z,11.27
2023-04-18T00:26:59.853Z,11.23
2023-04-18T00:27:29.857Z,11.24
2023-04-18T00:27:59.855Z,11.25
2023-04-18T00:28:29.850Z,11.25
2023-04-18T00:28:59.859Z,11.22
2023-04-18T00:29:29.852Z,11.21
2023-04-18T00:29:59.857Z,11.21
2023-04-18T00:30:29.854Z,11.23
2023-04-18T00:30:59.898Z,11.23
2023-04-18T00:31:29.980Z,11.2
2023-04-18T00:31:59.856Z,11.17
2023-04-18T00:32:29.890Z,11.13
2023-04-18T00:32:59.898Z,11.1
2023-04-18T00:33:29.858Z,11.11
2023-04-18T00:33:59.862Z,11.12
2023-04-18T00:34:29.861Z,11.12
2023-04-18T00:34:59.872Z,11.12
2023-04-18T00:35:29.859Z,11.1
2023-04-18T00:35:59.868Z,11.06
2023-04-18T00:36:29.860Z,11.01
2023-04-18T00:36:59.861Z,11
2023-04-18T00:37:29.856Z,11
2023-04-18T00:37:59.873Z,11.02
2023-04-18T00:38:29.866Z,11.03
2023-04-18T00:38:59.870Z,11.04
2023-04-18T00:39:29.877Z,11.03
2023-04-18T00:39:59.870Z,11.06
2023-04-18T00:40:29.866Z,11.08
2023-04-18T00:40:59.860Z,11.08
2023-04-18T00:41:29.862Z,11.08
2023-04-18T00:41:59.862Z,11.06
2023-04-18T00:42:29.880Z,11.04
2023-04-18T00:42:59.860Z,10.99
2023-04-18T00:43:29.875Z,10.93
2023-04-18T00:43:59.865Z,10.92
2023-04-18T00:44:29.860Z,10.92
2023-04-18T00:44:59.862Z,10.94
2023-04-18T00:45:29.867Z,10.94
2023-04-18T00:45:59.883Z,10.97
2023-04-18T00:46:29.900Z,10.98
2023-04-18T00:46:59.872Z,10.97
2023-04-18T00:47:29.888Z,10.91
2023-04-18T00:47:59.888Z,10.89
2023-04-18T00:48:29.853Z,10.88
2023-04-18T00:48:59.856Z,10.89
2023-04-18T00:49:29.857Z,10.88
2023-04-18T00:49:59.862Z,10.88
2023-04-18T00:50:29.858Z,10.89
2023-04-18T00:50:59.857Z,10.89
2023-04-18T00:51:29.874Z,10.87
2023-04-18T00:51:59.872Z,10.85
2023-04-18T00:52:29.861Z,10.86
2023-04-18T00:52:59.859Z,10.86
2023-04-18T00:53:29.858Z,10.88
2023-04-18T00:53:59.859Z,10.91
2023-04-18T00:54:29.864Z,10.94
2023-04-18T00:54:59.867Z,10.92
2023-04-18T00:55:29.857Z,10.91
2023-04-18T00:55:59.856Z,10.91
2023-04-18T00:56:29.872Z,10.92
2023-04-18T00:56:59.857Z,10.88
2023-04-18T00:57:29.859Z,10.88
2023-04-18T00:57:59.857Z,10.9
2023-04-18T00:58:29.867Z,10.9
2023-04-18T00:58:59.858Z,10.9
2023-04-18T00:59:29.854Z,10.91
2023-04-18T00:59:59.860Z,10.88
2023-04-18T01:00:29.859Z,10.86
2023-04-18T01:00:59.873Z,10.83
2023-04-18T01:01:29.876Z,10.81
2023-04-18T01:01:59.902Z,10.8
2023-04-18T01:02:29.953Z,10.8
2023-04-18T01:03:00.027Z,10.78
2023-04-18T01:03:30.207Z,10.74
2023-04-18T01:03:59.957Z,10.72
2023-04-18T01:04:30.045Z,10.74
2023-04-18T01:04:59.869Z,10.75
2023-04-18T01:05:29.856Z,10.74
2023-04-18T01:05:59.865Z,10.75
2023-04-18T01:06:29.861Z,10.75
2023-04-18T01:06:59.859Z,10.76
2023-04-18T01:07:29.867Z,10.76
2023-04-18T01:07:59.866Z,10.76
2023-04-18T01:08:29.864Z,10.76
2023-04-18T01:08:59.866Z,10.76
2023-04-18T01:09:29.865Z,10.75
2023-04-18T01:09:59.871Z,10.7
2023-04-18T01:10:29.862Z,10.7
2023-04-18T01:10:59.884Z,10.69
2023-04-18T01:11:29.867Z,10.68
2023-04-18T01:11:59.867Z,10.64
2023-04-18T01:12:29.860Z,10.63
2023-04-18T01:12:59.860Z,10.58
2023-04-18T01:13:29.873Z,10.55
2023-04-18T01:13:59.869Z,10.53
2023-04-18T01:14:29.869Z,10.55
2023-04-18T01:14:59.859Z,10.58
2023-04-18T01:15:29.872Z,10.6
2023-04-18T01:15:59.880Z,10.63
2023-04-18T01:16:29.862Z,10.61
2023-04-18T01:16:59.862Z,10.6
2023-04-18T01:17:29.878Z,10.59
2023-04-18T01:17:59.900Z,10.55
2023-04-18T01:18:29.866Z,10.53
2023-04-18T01:18:59.860Z,10.52
2023-04-18T01:19:29.862Z,10.54
2023-04-18T01:19:59.884Z,10.56
2023-04-18T01:20:29.864Z,10.55
2023-04-18T01:20:59.863Z,10.55
2023-04-18T01:21:29.859Z,10.57
2023-04-18T01:21:59.862Z,10.58
2023-04-18T01:22:29.865Z,10.58
2023-04-18T01:22:59.863Z,10.59
2023-04-18T01:23:29.864Z,10.58
2023-04-18T01:23:59.868Z,10.56
2023-04-18T01:24:29.864Z,10.57
2023-04-18T01:24:59.874Z,10.59
2023-04-18T01:25:29.863Z,10.58
2023-04-18T01:25:59.865Z,10.6
2023-04-18T01:26:29.868Z,10.62
2023-04-18T01:26:59.866Z,10.61
2023-04-18T01:27:29.866Z,10.6
2023-04-18T01:27:59.868Z,10.58
2023-04-18T01:28:29.867Z,10.53
2023-04-18T01:28:59.869Z,10.48
2023-04-18T01:29:29.884Z,10.46
2023-04-18T01:29:59.868Z,10.43
2023-04-18T01:30:29.864Z,10.38
2023-04-18T01:30:59.910Z,10.36
2023-04-18T01:31:29.899Z,10.37
2023-04-18T01:31:59.873Z,10.39
2023-04-18T01:32:29.873Z,10.41
2023-04-18T01:32:59.901Z,10.42
2023-04-18T01:33:29.873Z,10.43
2023-04-18T01:33:59.866Z,10.46
2023-04-18T01:34:29.870Z,10.49
2023-04-18T01:34:59.870Z,10.47
2023-04-18T01:35:29.862Z,10.46
2023-04-18T01:35:59.876Z,10.45
2023-04-18T01:36:29.862Z,10.44
2023-04-18T01:36:59.865Z,10.43
2023-04-18T01:37:29.867Z,10.43
2023-04-18T01:37:59.877Z,10.45
2023-04-18T01:38:29.866Z,10.46
2023-04-18T01:38:59.881Z,10.41
2023-04-18T01:39:29.864Z,10.35
2023-04-18T01:39:59.878Z,10.3
2023-04-18T01:40:29.866Z,10.24
2023-04-18T01:40:59.883Z,10.18
2023-04-18T01:41:29.863Z,10.17
2023-04-18T01:41:59.868Z,10.22
2023-04-18T01:42:29.870Z,10.24
2023-04-18T01:42:59.875Z,10.27
2023-04-18T01:43:29.870Z,10.35
2023-04-18T01:43:59.871Z,10.39
2023-04-18T01:44:29.865Z,10.44
2023-04-18T01:44:59.867Z,10.48
2023-04-18T01:45:29.873Z,10.47
2023-04-18T01:45:59.882Z,10.48
2023-04-18T01:46:29.897Z,10.5
2023-04-18T01:46:59.952Z,10.52
2023-04-18T01:47:29.873Z,10.56
2023-04-18T01:47:59.900Z,10.56
2023-04-18T01:48:29.865Z,10.56
2023-04-18T01:48:59.864Z,10.59
2023-04-18T01:49:29.867Z,10.62
2023-04-18T01:49:59.870Z,10.62
2023-04-18T01:50:29.866Z,10.62
2023-04-18T01:50:59.867Z,10.65
2023-04-18T01:51:29.868Z,10.69
2023-04-18T01:51:59.865Z,10.71
2023-04-18T01:52:29.875Z,10.69
2023-04-18T01:52:59.874Z,10.61
2023-04-18T01:53:29.885Z,10.58
2023-04-18T01:53:59.887Z,10.57
2023-04-18T01:54:29.874Z,10.57
2023-04-18T01:54:59.866Z,10.58
2023-04-18T01:55:29.865Z,10.61
2023-04-18T01:55:59.875Z,10.62
2023-04-18T01:56:29.871Z,10.64
2023-04-18T01:56:59.879Z,10.68
2023-04-18T01:57:29.869Z,10.67
2023-04-18T01:57:59.892Z,10.65
2023-04-18T01:58:29.877Z,10.64
2023-04-18T01:58:59.869Z,10.61
2023-04-18T01:59:29.868Z,10.61
2023-04-18T01:59:59.870Z,10.6
2023-04-18T02:00:29.902Z,10.61
2023-04-18T02:00:59.913Z,10.59
2023-04-18T02:01:29.870Z,10.56
2023-04-18T02:01:59.929Z,10.5
2023-04-18T02:02:30.036Z,10.48
2023-04-18T02:03:00.131Z,10.47
2023-04-18T02:03:29.952Z,10.47
2023-04-18T02:03:59.946Z,10.5
2023-04-18T02:04:29.869Z,10.56
2023-04-18T02:04:59.882Z,10.62
2023-04-18T02:05:29.869Z,10.71
2023-04-18T02:05:59.867Z,10.78
2023-04-18T02:06:29.869Z,10.78
2023-04-18T02:06:59.870Z,10.79
2023-04-18T02:07:29.879Z,10.75
2023-04-18T02:07:59.872Z,10.7
2023-04-18T02:08:29.880Z,10.63
2023-04-18T02:08:59.900Z,10.57
2023-04-18T02:09:29.873Z,10.5
2023-04-18T02:09:59.872Z,10.45
2023-04-18T02:10:29.868Z,10.47
2023-04-18T02:10:59.880Z,10.5
2023-04-18T02:11:29.879Z,10.51
2023-04-18T02:11:59.874Z,10.47
2023-04-18T02:12:29.875Z,10.46
2023-04-18T02:12:59.898Z,10.45
2023-04-18T02:13:29.878Z,10.46
2023-04-18T02:13:59.876Z,10.48
2023-04-18T02:14:29.873Z,10.53
2023-04-18T02:14:59.879Z,10.54
2023-04-18T02:15:29.873Z,10.52
2023-04-18T02:15:59.956Z,10.51
2023-04-18T02:16:29.939Z,10.49
2023-04-18T02:16:59.870Z,10.46
2023-04-18T02:17:29.902Z,10.44
2023-04-18T02:17:59.925Z,10.46
2023-04-18T02:18:29.874Z,10.47
2023-04-18T02:18:59.879Z,10.46
2023-04-18T02:19:29.875Z,10.5
2023-04-18T02:19:59.878Z,10.51
2023-04-18T02:20:29.871Z,10.49
2023-04-18T02:20:59.876Z,10.45
2023-04-18T02:21:29.872Z,10.4
2023-04-18T02:21:59.878Z,10.4
2023-04-18T02:22:29.878Z,10.36
2023-04-18T02:22:59.876Z,10.32
2023-04-18T02:23:29.879Z,10.33
2023-04-18T02:23:59.885Z,10.32
2023-04-18T02:24:29.876Z,10.32
2023-04-18T02:24:59.875Z,10.32
2023-04-18T02:25:29.872Z,10.31
2023-04-18T02:25:59.887Z,10.33
2023-04-18T02:26:29.884Z,10.32
2023-04-18T02:26:59.876Z,10.35
2023-04-18T02:27:29.877Z,10.44
2023-04-18T02:27:59.879Z,10.49
2023-04-18T02:28:29.879Z,10.53
2023-04-18T02:28:59.885Z,10.53
2023-04-18T02:29:29.884Z,10.57
2023-04-18T02:29:59.883Z,10.57
2023-04-18T02:30:29.885Z,10.57
2023-04-18T02:30:59.876Z,10.57
2023-04-18T02:31:29.909Z,10.57
2023-04-18T02:31:59.954Z,10.57
2023-04-18T02:32:29.899Z,10.59
2023-04-18T02:32:59.935Z,10.57
2023-04-18T02:33:29.891Z,10.53
2023-04-18T02:33:59.880Z,10.48
2023-04-18T02:34:29.879Z,10.44
2023-04-18T02:34:59.878Z,10.41
2023-04-18T02:35:29.883Z,10.36
2023-04-18T02:35:59.877Z,10.37
2023-04-18T02:36:29.891Z,10.36
2023-04-18T02:36:59.878Z,10.38
2023-04-18T02:37:29.922Z,10.38
2023-04-18T02:37:59.884Z,10.39
2023-04-18T02:38:29.890Z,10.41
2023-04-18T02:38:59.889Z,10.46
2023-04-18T02:39:29.884Z,10.53
2023-04-18T02:39:59.885Z,10.57
2023-04-18T02:40:29.878Z,10.58
2023-04-18T02:40:59.877Z,10.56
2023-04-18T02:41:29.879Z,10.55
2023-04-18T02:41:59.889Z,10.53
2023-04-18T02:42:29.879Z,10.55
2023-04-18T02:42:59.880Z,10.52
2023-04-18T02:43:29.884Z,10.5
2023-04-18T02:43:59.880Z,10.48
2023-04-18T02:44:29.879Z,10.54
2023-04-18T02:44:59.883Z,10.58
2023-04-18T02:45:29.884Z,10.54
2023-04-18T02:45:59.941Z,10.49
2023-04-18T02:46:29.935Z,10.48
2023-04-18T02:46:59.874Z,10.52
2023-04-18T02:47:31.746Z,10.5
2023-04-18T02:48:00.935Z,10.5
2023-04-18T02:48:29.935Z,10.54
2023-04-18T02:48:59.883Z,10.55
2023-04-18T02:49:29.879Z,10.55
2023-04-18T02:49:59.882Z,10.56
2023-04-18T02:50:29.881Z,10.59
2023-04-18T02:50:59.882Z,10.61
2023-04-18T02:51:29.880Z,10.65
2023-04-18T02:51:59.880Z,10.64
2023-04-18T02:52:29.880Z,10.67
2023-04-18T02:52:59.908Z,10.73
2023-04-18T02:53:29.880Z,10.77
2023-04-18T02:53:59.882Z,10.76
2023-04-18T02:54:29.881Z,10.78
2023-04-18T02:54:59.876Z,10.74
2023-04-18T02:55:29.877Z,10.73
2023-04-18T02:55:59.892Z,10.8
2023-04-18T02:56:29.885Z,10.88
2023-04-18T02:56:59.881Z,11
2023-04-18T02:57:29.883Z,11.05
2023-04-18T02:57:59.881Z,11.02
2023-04-18T02:58:29.887Z,11
2023-04-18T02:58:59.886Z,10.99
2023-04-18T02:59:29.876Z,11.03
2023-04-18T02:59:59.889Z,11.09
2023-04-18T03:00:29.896Z,11.12
2023-04-18T03:00:59.904Z,11.11
2023-04-18T03:01:29.900Z,11.04
2023-04-18T03:01:59.925Z,11.01
2023-04-18T03:02:29.936Z,11.03
2023-04-18T03:02:59.986Z,11.06
2023-04-18T03:03:29.945Z,11.05
2023-04-18T03:03:59.889Z,10.99
2023-04-18T03:04:30.021Z,11
2023-04-18T03:04:59.918Z,11.02
2023-04-18T03:05:29.887Z,11.06
2023-04-18T03:05:59.882Z,11.13
2023-04-18T03:06:29.879Z,11.21
2023-04-18T03:06:59.884Z,11.21
2023-04-18T03:07:29.900Z,11.22
2023-04-18T03:07:59.877Z,11.3
2023-04-18T03:08:29.877Z,11.37
2023-04-18T03:08:59.882Z,11.43
2023-04-18T03:09:29.884Z,11.46
2023-04-18T03:09:59.892Z,11.47
2023-04-18T03:10:29.878Z,11.48
2023-04-18T03:10:59.877Z,11.46
2023-04-18T03:11:29.885Z,11.44
2023-04-18T03:11:59.894Z,11.45
2023-04-18T03:12:29.884Z,11.47
2023-04-18T03:12:59.884Z,11.44
2023-04-18T03:13:29.879Z,11.47
2023-04-18T03:13:59.888Z,11.48
2023-04-18T03:14:29.880Z,11.49
2023-04-18T03:14:59.880Z,11.54
2023-04-18T03:15:29.881Z,11.65
2023-04-18T03:15:59.909Z,11.68
2023-04-18T03:16:29.897Z,11.74
2023-04-18T03:16:59.886Z,11.68
2023-04-18T03:17:29.910Z,11.58
2023-04-18T03:17:59.899Z,11.56
2023-04-18T03:18:29.884Z,11.53
2023-04-18T03:18:59.887Z,11.52
2023-04-18T03:19:29.884Z,11.57
2023-04-18T03:19:59.886Z,11.59
2023-04-18T03:20:29.887Z,11.63
2023-04-18T03:20:59.892Z,11.69
2023-04-18T03:21:29.885Z,11.75
2023-04-18T03:21:59.910Z,11.82
2023-04-18T03:22:29.888Z,11.85
2023-04-18T03:22:59.881Z,11.86
2023-04-18T03:23:29.884Z,11.84
2023-04-18T03:23:59.879Z,11.88
2023-04-18T03:24:29.882Z,11.88
2023-04-18T03:24:59.885Z,11.92
2023-04-18T03:25:29.885Z,11.95
2023-04-18T03:25:59.894Z,12
2023-04-18T03:26:29.906Z,12.05
2023-04-18T03:26:59.881Z,12.07
2023-04-18T03:27:29.910Z,12.11
2023-04-18T03:27:59.884Z,12.18
2023-04-18T03:28:29.893Z,12.23
2023-04-18T03:28:59.885Z,12.3
2023-04-18T03:29:29.886Z,12.34
2023-04-18T03:29:59.881Z,12.37
2023-04-18T03:30:29.884Z,12.35
2023-04-18T03:30:59.907Z,12.32
2023-04-18T03:31:29.923Z,12.32
2023-04-18T03:31:59.892Z,12.27
2023-04-18T03:32:29.928Z,12.22
2023-04-18T03:32:59.916Z,12.16
2023-04-18T03:33:29.886Z,12.1
2023-04-18T03:33:59.884Z,12.08
2023-04-18T03:34:29.882Z,12.08
2023-04-18T03:34:59.887Z,12.1
2023-04-18T03:35:29.886Z,12.13
2023-04-18T03:35:59.894Z,12.23
2023-04-18T03:36:29.889Z,12.35
2023-04-18T03:36:59.892Z,12.47
2023-04-18T03:37:29.925Z,12.58
2023-04-18T03:37:59.896Z,12.68
2023-04-18T03:38:29.893Z,12.81
2023-04-18T03:38:59.884Z,12.9
2023-04-18T03:39:29.883Z,12.88
2023-04-18T03:39:59.887Z,12.91
2023-04-18T03:40:29.903Z,12.9
2023-04-18T03:40:59.890Z,12.86
2023-04-18T03:41:29.896Z,12.79
2023-04-18T03:41:59.885Z,12.75
2023-04-18T03:42:29.892Z,12.75
2023-04-18T03:42:59.906Z,12.7
2023-04-18T03:43:29.890Z,12.69
2023-04-18T03:43:59.902Z,12.69
2023-04-18T03:44:29.892Z,12.71
2023-04-18T03:44:59.883Z,12.69
2023-04-18T03:45:29.888Z,12.71
2023-04-18T03:45:59.921Z,12.74
2023-04-18T03:46:29.904Z,12.68
2023-04-18T03:46:59.892Z,12.68
2023-04-18T03:47:29.990Z,12.76
2023-04-18T03:47:59.996Z,12.82
2023-04-18T03:48:29.888Z,12.89
2023-04-18T03:48:59.897Z,13
2023-04-18T03:49:29.891Z,13.08
2023-04-18T03:49:59.894Z,13.12
2023-04-18T03:50:29.894Z,13.11
2023-04-18T03:50:59.894Z,13.16
2023-04-18T03:51:29.913Z,13.18
2023-04-18T03:51:59.890Z,13.26
2023-04-18T03:52:30.045Z,13.34
2023-04-18T03:52:59.886Z,13.46
2023-04-18T03:53:29.891Z,13.57
2023-04-18T03:53:59.887Z,13.67
2023-04-18T03:54:29.885Z,13.76
2023-04-18T03:54:59.890Z,13.8
2023-04-18T03:55:29.914Z,13.81
2023-04-18T03:55:59.890Z,13.8
2023-04-18T03:56:29.929Z,13.84
2023-04-18T03:56:59.895Z,13.87
2023-04-18T03:57:29.891Z,13.95
2023-04-18T03:57:59.891Z,14.01
2023-04-18T03:58:29.914Z,13.99
2023-04-18T03:58:59.890Z,14.04
2023-04-18T03:59:29.889Z,14.1
2023-04-18T03:59:59.888Z,14.1
2023-04-18T04:00:29.893Z,14.03
2023-04-18T04:00:59.889Z,14.02
2023-04-18T04:01:29.961Z,13.92
2023-04-18T04:02:00.043Z,13.77
2023-04-18T04:02:30.006Z,13.64
2023-04-18T04:03:00.093Z,13.6
2023-04-18T04:03:29.953Z,13.57
2023-04-18T04:03:59.998Z,13.6
2023-04-18T04:04:29.913Z,13.65
2023-04-18T04:04:59.933Z,13.73
2023-04-18T04:05:29.910Z,13.77
2023-04-18T04:05:59.913Z,13.76
2023-04-18T04:06:29.899Z,13.75
2023-04-18T04:06:59.899Z,13.84
2023-04-18T04:07:29.897Z,14.17
2023-04-18T04:07:59.893Z,14.72
2023-04-18T04:08:29.897Z,15.46
2023-04-18T04:08:59.917Z,16.27
2023-04-18T04:09:29.893Z,17.11
2023-04-18T04:09:59.893Z,18
2023-04-18T04:10:29.897Z,18.98
2023-04-18T04:10:59.904Z,19.96
2023-04-18T04:11:29.896Z,20.81
2023-04-18T04:11:59.896Z,21.38
2023-04-18T04:12:29.898Z,21.71
2023-04-18T04:12:59.896Z,21.92
2023-04-18T04:13:29.907Z,22.27
2023-04-18T04:13:59.898Z,22.82
2023-04-18T04:14:29.905Z,23.03
2023-04-18T04:14:59.892Z,23.1
2023-04-18T04:15:29.902Z,23.03
2023-04-18T04:15:59.918Z,23.28
2023-04-18T04:16:29.987Z,23.44
2023-04-18T04:16:59.903Z,23.67
2023-04-18T04:17:29.918Z,23.83
2023-04-18T04:17:59.926Z,23.88
2023-04-18T04:18:29.898Z,23.95
2023-04-18T04:18:59.898Z,24.13
2023-04-18T04:19:29.903Z,24.28
2023-04-18T04:19:59.913Z,24.51
2023-04-18T04:20:29.901Z,24.51
2023-04-18T04:20:59.919Z,24.48
2023-04-18T04:21:29.904Z,24.44
2023-04-18T04:21:59.914Z,24.31
2023-04-18T04:22:29.899Z,23.96
2023-04-18T04:22:59.902Z,23.88
2023-04-18T04:23:29.904Z,23.7
2023-04-18T04:23:59.901Z,23.63
2023-04-18T04:24:29.898Z,23.44
2023-04-18T04:24:59.918Z,23.44
2023-04-18T04:25:29.913Z,23.15
2023-04-18T04:25:59.899Z,23.11
2023-04-18T04:26:29.901Z,23.26
2023-04-18T04:26:59.903Z,23.5
2023-04-18T04:27:29.902Z,23.62
2023-04-18T04:27:59.900Z,24.03
2023-04-18T04:28:29.907Z,24.28
2023-04-18T04:28:59.897Z,24.37
2023-04-18T04:29:29.897Z,24.44
2023-04-18T04:29:59.896Z,24.37
2023-04-18T04:30:29.899Z,24.42
2023-04-18T04:30:59.903Z,24.38
2023-04-18T04:31:29.905Z,24.57
2023-04-18T04:31:59.959Z,24.82
2023-04-18T04:32:29.931Z,24.8
2023-04-18T04:32:59.954Z,24.83
2023-04-18T04:33:29.900Z,24.93
2023-04-18T04:33:59.899Z,25.04
2023-04-18T04:34:29.917Z,25.19
2023-04-18T04:34:59.909Z,25.1
2023-04-18T04:35:29.905Z,25.37
2023-04-18T04:35:59.919Z,25.33
2023-04-18T04:36:29.906Z,25.63
2023-04-18T04:36:59.908Z,25.48
2023-04-18T04:37:29.907Z,24.97
2023-04-18T04:37:59.905Z,24.28
2023-04-18T04:38:29.900Z,23.79
2023-04-18T04:38:59.902Z,23.1
2023-04-18T04:39:29.901Z,22.42
2023-04-18T04:39:59.900Z,21.71
2023-04-18T04:40:29.920Z,20.85
2023-04-18T04:40:59.925Z,20.04
2023-04-18T04:41:29.900Z,19.41
2023-04-18T04:41:59.904Z,18.9
2023-04-18T04:42:29.913Z,18.49
2023-04-18T04:42:59.897Z,18.24
2023-04-18T04:43:29.899Z,18.08
2023-04-18T04:43:59.907Z,17.91
2023-04-18T04:44:29.948Z,17.84
2023-04-18T04:44:59.952Z,17.79
2023-04-18T04:45:29.916Z,17.85
2023-04-18T04:45:59.984Z,17.84
2023-04-18T04:46:29.906Z,17.75
2023-04-18T04:46:59.905Z,17.62
2023-04-18T04:47:29.916Z,17.63
2023-04-18T04:47:59.922Z,17.84
2023-04-18T04:48:29.900Z,18.21
2023-04-18T04:48:59.905Z,18.84
2023-04-18T04:49:29.910Z,19.46
2023-04-18T04:49:59.903Z,19.8
2023-04-18T04:50:29.905Z,20.09
2023-04-18T04:50:59.904Z,20.3
2023-04-18T04:51:29.907Z,20.57
2023-04-18T04:52:29.901Z,21.3
2023-04-18T04:52:59.901Z,21.41
2023-04-18T04:53:29.920Z,21.71
2023-04-18T04:53:59.911Z,22.12
2023-04-18T04:54:29.959Z,22.79
2023-04-18T04:54:59.993Z,23.6
2023-04-18T04:55:29.921Z,24.54
2023-04-18T04:55:59.915Z,25.26
2023-04-18T04:56:29.921Z,25.68
2023-04-18T04:56:59.929Z,25.86
2023-04-18T04:57:29.905Z,26.2
2023-04-18T04:57:59.903Z,26.65
2023-04-18T04:58:29.905Z,26.87
2023-04-18T04:58:59.915Z,26.7
2023-04-18T04:59:29.908Z,26.35
2023-04-18T04:59:59.916Z,26.24
2023-04-18T05:00:29.904Z,26.22
2023-04-18T05:00:59.920Z,26.37
2023-04-18T05:01:29.937Z,26.54
2023-04-18T05:01:59.939Z,26.9
2023-04-18T05:02:29.992Z,27.25
2023-04-18T05:03:00.038Z,27.45
2023-04-18T05:03:30.050Z,27.52
2023-04-18T05:03:59.998Z,27.49
2023-04-18T05:04:30.058Z,27.61
2023-04-18T05:04:59.917Z,27.88
2023-04-18T05:05:29.906Z,28.15
2023-04-18T05:05:59.931Z,28.42
2023-04-18T05:06:29.913Z,28.59
2023-04-18T05:06:59.919Z,28.54
2023-04-18T05:07:29.944Z,28.33
2023-04-18T05:07:59.922Z,28.07
2023-04-18T05:08:29.909Z,27.67
2023-04-18T05:08:59.911Z,27.2
2023-04-18T05:09:29.914Z,27.02
2023-04-18T05:09:59.915Z,26.73
2023-04-18T05:10:29.920Z,26.33
2023-04-18T05:10:59.909Z,26.24
2023-04-18T05:11:29.910Z,26.2
2023-04-18T05:11:59.911Z,26.22
2023-04-18T05:12:29.912Z,26.11
2023-04-18T05:12:59.913Z,26.25
2023-04-18T05:13:29.923Z,26.49
2023-04-18T05:13:59.909Z,26.88
2023-04-18T05:14:29.911Z,27.63
2023-04-18T05:14:59.906Z,28.26
2023-04-18T05:15:29.910Z,28.65
2023-04-18T05:15:59.916Z,28.84
2023-04-18T05:16:29.943Z,28.84
2023-04-18T05:17:00.008Z,28.79
2023-04-18T05:17:29.929Z,29.14
2023-04-18T05:17:59.930Z,29.38
2023-04-18T05:18:29.926Z,28.78
2023-04-18T05:18:59.910Z,28.33
2023-04-18T05:19:29.908Z,28.15
2023-04-18T05:19:59.919Z,28.19
2023-04-18T05:20:29.910Z,28.41
2023-04-18T05:20:59.913Z,28.79
2023-04-18T05:21:29.917Z,29.21
2023-04-18T05:21:59.925Z,29.42
2023-04-18T05:22:29.925Z,29.26
2023-04-18T05:22:59.930Z,29.32
2023-04-18T05:23:29.913Z,29.23
2023-04-18T05:23:59.913Z,28.84
2023-04-18T05:24:29.918Z,28.64
2023-04-18T05:24:59.912Z,28.34
2023-04-18T05:25:30.077Z,28.33
2023-04-18T05:25:59.929Z,28.22
2023-04-18T05:26:29.919Z,28.1
2023-04-18T05:26:59.930Z,28.07
2023-04-18T05:27:29.917Z,28.33
2023-04-18T05:27:59.911Z,28.65
2023-04-18T05:28:29.918Z,28.62
2023-04-18T05:28:59.918Z,28.57
2023-04-18T05:29:29.914Z,28.55
2023-04-18T05:29:59.915Z,28.72
2023-04-18T05:30:29.917Z,29.17
2023-04-18T05:30:59.966Z,29.39
2023-04-18T05:31:30.000Z,29.59
2023-04-18T05:31:59.917Z,29.38
2023-04-18T05:32:29.923Z,28.76
2023-04-18T05:32:59.932Z,28.34
2023-04-18T05:33:29.924Z,28.51
2023-04-18T05:33:59.917Z,28.68
2023-04-18T05:34:29.921Z,28.68
2023-04-18T05:34:59.921Z,28.25
2023-04-18T05:35:29.915Z,28.19
2023-04-18T05:35:59.997Z,28.38
2023-04-18T05:36:29.949Z,28.7
2023-04-18T05:36:59.938Z,29.07
2023-04-18T05:37:29.998Z,29.57
2023-04-18T05:38:00.006Z,30.17
2023-04-18T05:38:30.000Z,30.54
2023-04-18T05:38:59.978Z,30.66
2023-04-18T05:39:29.969Z,30.52
2023-04-18T05:40:00.892Z,30.36
2023-04-18T05:40:30.034Z,30.19
2023-04-18T05:40:59.987Z,29.53
2023-04-18T05:41:29.982Z,29.27
2023-04-18T05:42:00.042Z,29.43
2023-04-18T05:42:29.987Z,29.76
2023-04-18T05:43:00.039Z,30.05
2023-04-18T05:43:29.986Z,30.64
2023-04-18T05:44:05.486Z,31.13
2023-04-18T05:44:30.971Z,31.95
2023-04-18T05:44:59.940Z,32.55
2023-04-18T05:45:29.928Z,33.04
2023-04-18T05:46:00.017Z,33.59
2023-04-18T05:46:29.963Z,33.8
2023-04-18T05:46:59.925Z,33.83
2023-04-18T05:47:29.941Z,33.77
2023-04-18T05:48:00.024Z,33.75
2023-04-18T05:48:29.927Z,33.79
2023-04-18T05:48:59.925Z,33.8
2023-04-18T05:49:29.932Z,33.94
2023-04-18T05:49:59.930Z,34.24
2023-04-18T05:50:29.933Z,34.31
2023-04-18T05:50:59.926Z,34.05
2023-04-18T05:51:29.937Z,33.53
2023-04-18T05:51:59.931Z,33.18
2023-04-18T05:52:29.932Z,32.91
2023-04-18T05:52:59.931Z,32.31
2023-04-18T05:53:29.933Z,31.77
2023-04-18T05:53:59.932Z,31.47
2023-04-18T05:54:29.929Z,31.22
2023-04-18T05:54:59.928Z,30.83
2023-04-18T05:55:29.926Z,30.32
2023-04-18T05:55:59.933Z,30.06
2023-04-18T05:56:29.938Z,30.04
2023-04-18T05:57:00.409Z,30.29
2023-04-18T05:57:29.931Z,30.59
2023-04-18T05:57:59.936Z,30.85
2023-04-18T05:58:29.933Z,31.01
2023-04-18T05:58:59.942Z,31.2
2023-04-18T05:59:29.952Z,30.96
2023-04-18T05:59:59.937Z,30.89
2023-04-18T06:00:29.933Z,30.59
2023-04-18T06:00:59.931Z,30.61
2023-04-18T06:01:29.931Z,30.67
2023-04-18T06:02:00.043Z,30.85
2023-04-18T06:02:30.123Z,31.17
2023-04-18T06:03:00.348Z,31.14
2023-04-18T06:03:30.148Z,31.24
2023-04-18T06:04:00.086Z,31.43
2023-04-18T06:04:30.122Z,31.69
2023-04-18T06:05:00.076Z,31.86
2023-04-18T06:05:30.156Z,31.97
2023-04-18T06:05:59.973Z,32.44
2023-04-18T06:06:29.940Z,32.7
2023-04-18T06:06:59.943Z,32.81
2023-04-18T06:07:29.935Z,32.97
2023-04-18T06:07:59.938Z,32.84
2023-04-18T06:08:29.936Z,32.92
2023-04-18T06:08:59.934Z,33
2023-04-18T06:09:29.931Z,32.71
2023-04-18T06:09:59.938Z,32.55
2023-04-18T06:10:29.964Z,32.18
2023-04-18T06:10:59.942Z,32.3
2023-04-18T06:11:29.962Z,32.65
2023-04-18T06:11:59.934Z,32.58
2023-04-18T06:12:29.934Z,32.32
2023-04-18T06:12:59.934Z,32.54
2023-04-18T06:13:29.938Z,32.75
2023-04-18T06:13:59.934Z,32.97
2023-04-18T06:14:29.937Z,32.95
2023-04-18T06:14:59.933Z,32.92
2023-04-18T06:15:29.946Z,32.8
2023-04-18T06:15:59.951Z,32.88
2023-04-18T06:16:30.009Z,33.05
2023-04-18T06:16:59.943Z,32.93
2023-04-18T06:17:29.956Z,32.51
2023-04-18T06:17:59.979Z,32.27
2023-04-18T06:18:29.951Z,32.2
2023-04-18T06:19:01.225Z,32.23
2023-04-18T06:19:29.936Z,32.13
2023-04-18T06:19:59.938Z,32.32
2023-04-18T06:20:30.036Z,32.45
2023-04-18T06:20:59.940Z,32.76
2023-04-18T06:21:29.942Z,33.19
2023-04-18T06:21:59.950Z,33.66
2023-04-18T06:22:29.947Z,34.15
2023-04-18T06:22:59.949Z,34.63
2023-04-18T06:23:29.946Z,34.48
2023-04-18T06:23:59.941Z,34.06
2023-04-18T06:24:31.204Z,33.81
2023-04-18T06:24:59.947Z,33.83
2023-04-18T06:25:29.945Z,33.74
2023-04-18T06:25:59.941Z,34.14
2023-04-18T06:26:29.939Z,33.87
2023-04-18T06:26:59.944Z,33.61
2023-04-18T06:27:31.813Z,33.27
2023-04-18T06:27:59.948Z,32.94
2023-04-18T06:28:29.946Z,32.74